Time;durP1;ratioP1;P1;durP2;ratioP2;P2;SDS_P1;SDS_P2;PMS_P1;PMS_P2;Temp;Humidity;BMP_temperature;BMP_pressure;BME280_temperature;BME280_humidity;BME280_pressure;Samples;Min_cycle;Max_cycle;Signal;HPM_P1;HPM_P2
2023/06/15 00:01:32;;;;;;;2.60;2.25;;;;;;;21.42;48.73;101877.75;5058672;28;20033;-70
2023/06/15 00:03:59;;;;;;;3.42;2.45;;;;;;;21.44;48.90;101901.09;5042418;28;20033;-66
2023/06/15 00:06:27;;;;;;;3.40;2.45;;;;;;;21.40;49.35;101897.19;5058084;28;20028;-66
2023/06/15 00:08:53;;;;;;;3.92;2.22;;;;;;;21.34;49.38;101896.25;5059820;28;20032;-66
2023/06/15 00:11:18;;;;;;;4.03;2.50;;;;;;;21.30;49.62;101900.53;5060077;28;20021;-65
2023/06/15 00:13:43;;;;;;;3.60;2.28;;;;;;;21.25;49.93;101896.84;5058156;28;20037;-66
2023/06/15 00:16:09;;;;;;;5.80;2.60;;;;;;;21.18;50.00;101894.25;5058803;28;20040;-65
2023/06/15 00:18:37;;;;;;;3.17;2.28;;;;;;;21.13;50.05;101888.69;5058408;28;20461;-66
2023/06/15 00:21:03;;;;;;;3.38;2.20;;;;;;;21.03;50.36;101877.53;5059270;28;20080;-65
2023/06/15 00:23:29;;;;;;;3.65;2.20;;;;;;;20.99;50.66;101884.56;5057723;28;20047;-70
2023/06/15 00:25:55;;;;;;;3.63;2.50;;;;;;;20.91;50.70;101885.78;5040824;28;20025;-66
2023/06/15 00:28:21;;;;;;;4.25;2.70;;;;;;;20.82;51.41;101881.75;5058806;28;20122;-65
2023/06/15 00:30:46;;;;;;;4.32;2.63;;;;;;;20.79;51.80;101883.06;5058148;28;20036;-66
2023/06/15 00:33:11;;;;;;;3.90;2.50;;;;;;;20.74;52.56;101888.44;5061858;28;20300;-66
2023/06/15 00:35:37;;;;;;;3.58;2.40;;;;;;;20.65;53.07;101885.22;5062497;28;20017;-65
2023/06/15 00:38:03;;;;;;;4.78;2.60;;;;;;;20.55;53.29;101871.31;5044125;28;20025;-65
2023/06/15 00:40:28;;;;;;;4.22;2.40;;;;;;;20.53;53.41;101875.38;5062544;28;20093;-66
2023/06/15 00:42:53;;;;;;;4.03;2.85;;;;;;;20.51;53.59;101869.31;5060917;28;20029;-67
2023/06/15 00:45:19;;;;;;;4.15;2.40;;;;;;;20.50;53.67;101871.19;5061326;28;20057;-71
2023/06/15 00:47:46;;;;;;;2.65;2.25;;;;;;;20.44;54.03;101877.63;5061313;28;20040;-65
2023/06/15 00:50:19;;;;;;;6.53;2.80;;;;;;;20.36;54.15;101873.34;5062293;28;20356;-65
2023/06/15 00:52:45;;;;;;;4.03;2.60;;;;;;;20.26;54.41;101864.88;5061953;28;20029;-66
2023/06/15 00:55:13;;;;;;;3.67;2.65;;;;;;;20.07;54.44;101858.72;5062301;28;20060;-65
2023/06/15 00:57:44;;;;;;;2.92;2.53;;;;;;;19.95;53.97;101845.06;5061136;28;20033;-65
2023/06/15 01:00:14;;;;;;;3.60;2.72;;;;;;;19.98;53.88;101860.16;5062189;28;20025;-69
2023/06/15 01:02:40;;;;;;;4.38;2.75;;;;;;;19.91;53.91;101862.16;5061496;28;20029;-65
2023/06/15 01:05:10;;;;;;;4.25;2.70;;;;;;;19.85;52.71;101863.91;5062098;28;20060;-66
2023/06/15 01:07:40;;;;;;;3.47;2.42;;;;;;;19.79;53.28;101853.09;5060856;28;20033;-65
2023/06/15 01:10:11;;;;;;;3.63;2.33;;;;;;;19.74;52.38;101856.56;5062013;28;20075;-66
2023/06/15 01:12:40;;;;;;;3.35;2.40;;;;;;;19.70;52.47;101858.06;5062118;28;20361;-66
2023/06/15 01:15:07;;;;;;;4.30;2.60;;;;;;;19.66;52.56;101854.97;5060171;28;20024;-65
2023/06/15 01:17:33;;;;;;;4.43;2.35;;;;;;;19.63;51.90;101852.72;5060756;28;20040;-65
2023/06/15 01:20:07;;;;;;;6.35;2.90;;;;;;;19.58;52.08;101860.75;5060239;28;20041;-65
2023/06/15 01:22:55;;;;;;;3.87;2.77;;;;;;;19.56;52.26;101856.59;5061143;28;20025;-66
2023/06/15 01:25:26;;;;;;;6.88;2.20;;;;;;;19.53;52.67;101852.41;5059577;28;20048;-69
2023/06/15 01:27:59;;;;;;;4.35;2.50;;;;;;;19.44;53.15;101853.84;5061580;28;20024;-65
2023/06/15 01:30:27;;;;;;;3.92;2.50;;;;;;;19.39;52.50;101849.06;5060100;28;20028;-65
2023/06/15 01:32:53;;;;;;;3.40;2.45;;;;;;;19.41;52.71;101857.03;5059445;28;20108;-65
2023/06/15 01:35:18;;;;;;;7.20;2.60;;;;;;;19.29;52.06;101842.50;5061009;28;20036;-65
2023/06/15 01:37:44;;;;;;;5.03;2.70;;;;;;;19.36;51.79;101851.41;5061240;28;20033;-65
2023/06/15 01:40:10;;;;;;;4.72;2.47;;;;;;;19.34;51.24;101845.38;5061297;28;20029;-65
2023/06/15 01:42:36;;;;;;;4.55;2.38;;;;;;;19.36;51.21;101841.34;5059511;28;20035;-66
2023/06/15 01:45:02;;;;;;;2.60;2.30;;;;;;;19.40;51.18;101841.69;5059175;28;20041;-72
2023/06/15 01:47:28;;;;;;;5.05;2.60;;;;;;;19.39;51.43;101834.59;5060291;28;20072;-67
2023/06/15 01:49:55;;;;;;;3.63;2.70;;;;;;;19.48;51.57;101842.22;5043653;28;20071;-65
2023/06/15 01:52:21;;;;;;;5.25;2.50;;;;;;;19.57;51.63;101848.19;5026517;28;20025;-66
2023/06/15 01:54:47;;;;;;;4.95;2.95;;;;;;;19.60;52.14;101847.72;5060560;28;20052;-65
2023/06/15 01:57:12;;;;;;;5.20;2.75;;;;;;;19.59;51.95;101848.75;5060336;28;20048;-66
2023/06/15 01:59:38;;;;;;;4.63;2.35;;;;;;;19.57;52.21;101853.63;5058285;28;20141;-64
2023/06/15 02:02:03;;;;;;;4.28;2.72;;;;;;;19.58;53.05;101852.56;5055241;28;20457;-65
2023/06/15 02:04:29;;;;;;;3.17;2.65;;;;;;;19.61;54.28;101849.38;5060636;28;20024;-64
2023/06/15 02:06:57;;;;;;;4.03;2.30;;;;;;;19.53;54.84;101829.75;5045057;28;20572;-75
2023/06/15 02:09:22;;;;;;;6.05;3.00;;;;;;;19.61;55.19;101838.44;5064368;28;20052;-71
2023/06/15 02:11:48;;;;;;;6.55;2.75;;;;;;;19.54;55.30;101843.19;5062278;28;20029;-69
2023/06/15 02:14:17;;;;;;;7.97;2.83;;;;;;;19.63;56.55;101840.94;5061721;28;20037;-68
2023/06/15 02:16:43;;;;;;;7.50;2.90;;;;;;;19.67;57.19;101839.44;5062919;28;20057;-69
2023/06/15 02:19:08;;;;;;;3.45;2.53;;;;;;;19.65;57.67;101839.66;5059657;28;20442;-66
2023/06/15 02:21:33;;;;;;;5.30;2.90;;;;;;;19.71;58.92;101840.63;5060235;28;20032;-65
2023/06/15 02:23:59;;;;;;;4.95;2.97;;;;;;;19.79;59.91;101836.72;5058708;28;20119;-65
2023/06/15 02:26:25;;;;;;;7.13;3.03;;;;;;;19.83;61.14;101833.28;5059604;28;20495;-65
2023/06/15 02:28:51;;;;;;;4.10;2.83;;;;;;;19.87;62.08;101837.22;5042253;28;20115;-65
2023/06/15 02:31:16;;;;;;;4.95;2.45;;;;;;;19.78;61.18;101840.53;5059871;28;20064;-65
2023/06/15 02:33:42;;;;;;;4.10;2.60;;;;;;;19.80;63.44;101833.78;5059590;28;20116;-65
2023/06/15 02:36:07;;;;;;;5.72;2.70;;;;;;;20.00;64.37;101838.91;5059732;28;20021;-65
2023/06/15 02:38:33;;;;;;;4.05;2.50;;;;;;;20.17;62.85;101836.28;5059662;28;20033;-65
2023/06/15 02:40:58;;;;;;;4.22;2.97;;;;;;;20.37;62.69;101835.91;5059443;28;20033;-66
2023/06/15 02:43:23;;;;;;;4.25;2.85;;;;;;;20.66;61.77;101836.81;5058892;28;20029;-65
2023/06/15 02:45:49;;;;;;;5.78;2.83;;;;;;;20.95;61.68;101834.13;5059073;28;20407;-65
2023/06/15 02:48:15;;;;;;;3.70;2.85;;;;;;;21.18;61.15;101834.03;5059628;28;20039;-65
2023/06/15 02:50:40;;;;;;;5.95;3.33;;;;;;;21.47;61.05;101843.09;5057875;28;20035;-65
2023/06/15 02:53:06;;;;;;;5.90;2.80;;;;;;;21.79;60.53;101834.34;5059303;28;20029;-65
2023/06/15 02:55:33;;;;;;;6.28;2.90;;;;;;;21.83;60.30;101834.66;5024184;28;20021;-64
2023/06/15 02:57:58;;;;;;;4.22;2.78;;;;;;;21.79;60.78;101837.91;5059235;28;20036;-66
2023/06/15 03:00:25;;;;;;;4.20;2.92;;;;;;;21.99;60.78;101834.66;5057336;28;20033;-65
2023/06/15 03:02:52;;;;;;;5.22;3.05;;;;;;;22.39;59.07;101839.09;5059140;28;20032;-68
2023/06/15 03:05:18;;;;;;;5.15;3.05;;;;;;;22.73;57.67;101841.75;5057751;28;20100;-65
2023/06/15 03:07:43;;;;;;;4.57;2.72;;;;;;;22.93;56.08;101842.00;5058538;28;20024;-65
2023/06/15 03:10:09;;;;;;;4.45;3.00;;;;;;;23.02;54.74;101844.31;5054242;28;20041;-65
2023/06/15 03:12:35;;;;;;;4.55;2.83;;;;;;;23.14;54.30;101842.22;5059350;28;20031;-66
2023/06/15 03:15:02;;;;;;;6.32;2.65;;;;;;;23.30;53.59;101846.78;5058376;28;20559;-65
2023/06/15 03:17:29;;;;;;;3.13;2.80;;;;;;;23.48;54.10;101837.38;5052705;28;20036;-65
2023/06/15 03:19:54;;;;;;;5.22;3.00;;;;;;;23.58;54.13;101833.91;5051110;28;20040;-65
2023/06/15 03:22:23;;;;;;;5.50;3.13;;;;;;;23.33;56.04;101835.28;5052171;28;20043;-65
2023/06/15 03:24:49;;;;;;;6.40;2.90;;;;;;;22.97;57.32;101832.16;5050670;28;20035;-65
2023/06/15 03:27:16;;;;;;;5.78;2.80;;;;;;;23.10;57.79;101841.09;5052316;28;20021;-64
2023/06/15 03:29:42;;;;;;;5.20;2.88;;;;;;;22.73;59.51;101828.00;5052322;28;20472;-65
2023/06/15 03:32:08;;;;;;;3.78;2.50;;;;;;;22.35;61.02;101845.31;5052278;28;20052;-65
2023/06/15 03:34:37;;;;;;;4.55;2.80;;;;;;;22.92;59.67;101847.72;5051228;28;20474;-65
2023/06/15 03:37:03;;;;;;;4.50;2.70;;;;;;;23.41;57.89;101842.22;5054096;28;20075;-65
2023/06/15 03:39:29;;;;;;;4.03;3.05;;;;;;;23.76;56.87;101828.00;5057765;28;20548;-65
2023/06/15 03:41:54;;;;;;;5.53;3.20;;;;;;;24.23;56.05;101831.91;5056447;28;20029;-65
2023/06/15 03:44:20;;;;;;;3.80;3.10;;;;;;;24.50;55.47;101842.81;5056794;28;20136;-66
2023/06/15 03:46:46;;;;;;;3.90;3.00;;;;;;;24.92;54.25;101834.47;5057319;28;20033;-65
2023/06/15 03:49:13;;;;;;;4.43;2.95;;;;;;;25.53;52.72;101842.06;5057556;28;20025;-65
2023/06/15 03:51:38;;;;;;;3.42;2.80;;;;;;;25.92;51.88;101849.81;5058800;28;20037;-66
2023/06/15 03:54:04;;;;;;;3.88;3.00;;;;;;;26.38;51.56;101847.78;5056876;28;20590;-65
2023/06/15 03:56:30;;;;;;;4.97;3.20;;;;;;;26.75;50.48;101837.47;5058487;28;20025;-65
2023/06/15 03:58:56;;;;;;;3.75;3.30;;;;;;;26.59;50.32;101847.75;5040799;28;20025;-66
2023/06/15 04:01:22;;;;;;;6.13;2.85;;;;;;;26.97;49.49;101850.91;5056700;28;20488;-66
2023/06/15 04:03:48;;;;;;;4.60;2.90;;;;;;;27.37;48.48;101850.69;5056248;28;20029;-66
2023/06/15 04:06:15;;;;;;;4.38;2.90;;;;;;;27.57;47.29;101838.63;5058218;28;20535;-65
2023/06/15 04:08:41;;;;;;;4.95;3.05;;;;;;;27.77;46.85;101848.75;5044851;28;20032;-66
2023/06/15 04:11:06;;;;;;;3.25;2.70;;;;;;;27.82;45.88;101847.88;5062846;28;20025;-66
2023/06/15 04:13:32;;;;;;;4.47;2.88;;;;;;;27.55;44.91;101829.84;5060170;28;20082;-65
2023/06/15 04:15:57;;;;;;;4.65;2.88;;;;;;;26.48;46.74;101849.72;5059786;28;20090;-65
2023/06/15 04:18:23;;;;;;;4.00;2.60;;;;;;;25.24;49.46;101830.72;5044003;28;20384;-66
2023/06/15 04:20:49;;;;;;;4.03;2.60;;;;;;;24.75;51.45;101847.63;5062916;28;20029;-65
2023/06/15 04:23:15;;;;;;;3.80;2.88;;;;;;;24.38;52.30;101843.84;5061803;28;20025;-66
2023/06/15 04:25:40;;;;;;;3.85;2.88;;;;;;;24.01;53.27;101843.06;5061989;28;20037;-67
2023/06/15 04:28:10;;;;;;;3.80;2.80;;;;;;;23.82;53.32;101840.72;5061551;28;20041;-66
2023/06/15 04:30:37;;;;;;;3.78;2.80;;;;;;;23.73;53.64;101839.53;5061446;28;20025;-65
2023/06/15 04:33:04;;;;;;;4.53;2.97;;;;;;;23.53;53.90;101837.41;5061149;28;20078;-65
2023/06/15 04:35:34;;;;;;;5.07;3.20;;;;;;;24.63;51.29;101841.50;5060879;28;20044;-66
2023/06/15 04:38:04;;;;;;;3.97;3.30;;;;;;;25.28;49.23;101843.69;5059450;28;20035;-66
2023/06/15 04:40:31;;;;;;;4.10;3.10;;;;;;;25.89;47.79;101842.06;5061363;28;20380;-65
2023/06/15 04:43:02;;;;;;;3.38;2.92;;;;;;;26.34;45.96;101837.59;5058934;28;20035;-66
2023/06/15 04:45:28;;;;;;;4.70;3.00;;;;;;;26.46;46.22;101846.41;5054100;28;20056;-66
2023/06/15 04:47:54;;;;;;;5.82;2.92;;;;;;;27.29;43.34;101831.13;5058396;28;20036;-65
2023/06/15 04:50:21;;;;;;;3.30;2.70;;;;;;;27.83;41.79;101831.00;5060726;28;20032;-66
2023/06/15 04:52:48;;;;;;;3.95;2.95;;;;;;;28.22;40.49;101838.34;5060080;28;20056;-69
2023/06/15 04:55:13;;;;;;;3.90;2.88;;;;;;;27.09;41.79;101834.81;5059180;28;20430;-66
2023/06/15 04:57:39;;;;;;;8.68;3.05;;;;;;;26.84;42.02;101839.34;5059934;28;20025;-65
2023/06/15 05:00:10;;;;;;;3.92;2.70;;;;;;;27.80;40.17;101831.56;5057689;28;20033;-66
2023/06/15 05:02:35;;;;;;;4.22;2.53;;;;;;;28.19;39.11;101838.13;5059372;28;20031;-66
2023/06/15 05:05:02;;;;;;;2.63;2.42;;;;;;;28.22;38.55;101838.34;5057633;28;20116;-67
2023/06/15 05:07:28;;;;;;;5.25;2.50;;;;;;;28.12;38.87;101835.69;5058316;28;20171;-65
2023/06/15 05:09:53;;;;;;;5.20;2.67;;;;;;;28.08;38.55;101838.22;5057960;28;20499;-68
2023/06/15 05:12:19;;;;;;;5.72;2.80;;;;;;;27.79;38.36;101824.41;5059728;28;20111;-66
2023/06/15 05:14:44;;;;;;;3.45;2.83;;;;;;;27.83;38.33;101844.00;5059475;28;20082;-65
2023/06/15 05:17:10;;;;;;;6.05;2.83;;;;;;;27.72;39.08;101817.53;5056027;28;20021;-67
2023/06/15 05:19:36;;;;;;;3.47;2.58;;;;;;;27.74;38.53;101837.41;5059093;28;20032;-65
2023/06/15 05:22:02;;;;;;;6.40;2.95;;;;;;;27.32;38.94;101833.31;5040650;28;20029;-66
2023/06/15 05:24:28;;;;;;;5.07;3.25;;;;;;;27.22;37.68;101836.97;5057406;28;20028;-68
2023/06/15 05:26:53;;;;;;;5.93;2.70;;;;;;;27.19;36.36;101836.72;5058074;28;20045;-68
2023/06/15 05:29:20;;;;;;;3.70;2.90;;;;;;;27.34;37.08;101836.59;5058556;28;20017;-66
2023/06/15 05:31:46;;;;;;;4.40;3.00;;;;;;;27.04;36.32;101835.66;5057210;28;20095;-67
2023/06/15 05:34:12;;;;;;;4.95;2.90;;;;;;;26.78;35.72;101823.09;5058142;28;20056;-65
2023/06/15 05:36:37;;;;;;;4.93;2.63;;;;;;;26.88;34.82;101842.38;5056734;28;20025;-69
2023/06/15 05:39:03;;;;;;;5.63;2.90;;;;;;;27.00;36.74;101837.34;5057527;28;20127;-66
2023/06/15 05:41:30;;;;;;;6.28;2.70;;;;;;;27.00;37.09;101840.13;5056604;28;20025;-66
2023/06/15 05:43:55;;;;;;;6.50;3.03;;;;;;;26.67;37.66;101842.47;5058125;28;20040;-67
2023/06/15 05:46:21;;;;;;;5.35;2.90;;;;;;;26.68;36.96;101837.78;5056027;28;20056;-68
2023/06/15 05:48:46;;;;;;;8.30;2.70;;;;;;;26.48;36.18;101838.69;5057474;28;20032;-67
2023/06/15 05:51:12;;;;;;;4.70;2.60;;;;;;;26.30;36.60;101836.50;5055467;28;20143;-69
2023/06/15 05:53:37;;;;;;;2.90;2.60;;;;;;;26.01;38.86;101835.16;5055441;28;20033;-65
2023/06/15 05:56:03;;;;;;;3.60;2.90;;;;;;;25.82;39.06;101836.84;5054702;28;20244;-66
2023/06/15 05:58:29;;;;;;;3.90;2.88;;;;;;;25.82;38.62;101836.84;5054764;28;20032;-66
2023/06/15 06:00:54;;;;;;;4.80;3.00;;;;;;;25.89;38.24;101837.38;5057228;28;20044;-66
2023/06/15 06:03:20;;;;;;;3.78;2.70;;;;;;;26.08;38.03;101848.69;5057489;28;20491;-66
2023/06/15 06:05:45;;;;;;;3.65;3.00;;;;;;;26.23;38.31;101815.56;5057199;28;20111;-66
2023/06/15 06:08:10;;;;;;;4.47;2.90;;;;;;;26.69;37.60;101836.69;5039233;28;20033;-66
2023/06/15 06:10:36;;;;;;;3.95;3.00;;;;;;;26.79;37.62;101846.84;5058450;28;20052;-66
2023/06/15 06:13:01;;;;;;;5.18;2.97;;;;;;;26.76;37.70;101833.63;5056320;28;20033;-66
2023/06/15 06:15:27;;;;;;;3.25;2.90;;;;;;;26.83;37.59;101840.47;5056115;28;20419;-67
2023/06/15 06:17:52;;;;;;;4.55;2.80;;;;;;;26.90;37.79;101840.16;5059302;28;20025;-69
2023/06/15 06:20:18;;;;;;;5.32;3.13;;;;;;;26.77;39.48;101841.59;5060464;28;20488;-66
2023/06/15 06:22:44;;;;;;;5.95;3.45;;;;;;;26.55;40.05;101850.25;5039829;28;20028;-69
2023/06/15 06:25:11;;;;;;;4.88;3.17;;;;;;;26.64;39.38;101834.75;5056680;28;20028;-66
2023/06/15 06:27:36;;;;;;;3.45;2.90;;;;;;;26.70;39.63;101836.38;5056564;28;20449;-65
2023/06/15 06:30:02;;;;;;;3.80;2.95;;;;;;;26.37;40.10;101842.56;5055317;28;20124;-65
2023/06/15 06:32:27;;;;;;;3.28;2.70;;;;;;;26.14;40.08;101838.47;5057997;28;20041;-65
2023/06/15 06:34:53;;;;;;;3.58;2.58;;;;;;;26.08;40.12;101829.38;5057986;28;20032;-67
2023/06/15 06:37:18;;;;;;;3.08;2.78;;;;;;;26.37;39.71;101845.31;5058967;28;20036;-66
2023/06/15 06:39:43;;;;;;;4.85;3.22;;;;;;;26.73;38.73;101840.53;5058966;28;20538;-66
2023/06/15 06:42:09;;;;;;;5.50;3.20;;;;;;;26.98;38.08;101835.97;5058614;28;20523;-66
2023/06/15 06:44:35;;;;;;;6.07;2.88;;;;;;;27.07;38.31;101835.09;5057504;28;20052;-65
2023/06/15 06:47:01;;;;;;;7.47;3.15;;;;;;;27.10;38.71;101828.19;5057591;28;20052;-65
2023/06/15 06:49:27;;;;;;;4.72;2.85;;;;;;;27.17;38.84;101839.75;5059710;28;20123;-66
2023/06/15 06:51:52;;;;;;;4.80;2.92;;;;;;;27.46;39.13;101837.09;5057258;28;20134;-66
2023/06/15 06:54:18;;;;;;;4.38;3.00;;;;;;;27.53;39.12;101837.56;5054463;28;20460;-66
2023/06/15 06:56:44;;;;;;;4.10;3.00;;;;;;;27.36;38.73;101842.69;5055113;28;20048;-66
2023/06/15 06:59:09;;;;;;;4.68;2.90;;;;;;;27.25;38.93;101824.50;5056268;28;20049;-65
2023/06/15 07:01:35;;;;;;;5.07;3.20;;;;;;;27.32;38.50;101839.69;5022654;28;20073;-66
2023/06/15 07:04:00;;;;;;;6.07;3.10;;;;;;;27.26;38.39;101838.06;5054453;28;20067;-65
2023/06/15 07:06:26;;;;;;;6.82;3.33;;;;;;;27.21;37.24;101834.50;5055156;28;20020;-65
2023/06/15 07:08:51;;;;;;;7.03;3.33;;;;;;;27.31;37.14;101846.28;5054829;28;20033;-72
2023/06/15 07:11:16;;;;;;;7.20;3.30;;;;;;;27.45;37.16;101840.13;5057279;28;20033;-66
2023/06/15 07:13:42;;;;;;;5.60;3.17;;;;;;;27.19;37.16;101836.72;5059653;28;20029;-64
2023/06/15 07:16:08;;;;;;;4.95;3.38;;;;;;;26.88;38.82;101828.56;5057596;28;20021;-65
2023/06/15 07:18:33;;;;;;;4.13;3.38;;;;;;;26.72;39.36;101847.13;5040729;28;20037;-64
2023/06/15 07:20:58;;;;;;;5.13;3.40;;;;;;;26.68;40.21;101844.13;5054969;28;20489;-64
2023/06/15 07:23:25;;;;;;;3.33;2.80;;;;;;;26.60;39.53;101855.75;5053662;28;20021;-65
2023/06/15 07:25:51;;;;;;;4.28;3.03;;;;;;;26.60;38.99;101827.34;5052466;28;20032;-66
2023/06/15 07:28:17;;;;;;;4.10;3.20;;;;;;;26.81;39.02;101845.44;5057464;28;20101;-66
2023/06/15 07:30:44;;;;;;;6.75;3.30;;;;;;;26.97;39.32;101834.34;5058898;28;20039;-69
2023/06/15 07:33:11;;;;;;;5.90;3.40;;;;;;;26.87;38.19;101849.03;5056696;28;20092;-66
2023/06/15 07:35:36;;;;;;;8.18;3.58;;;;;;;26.91;37.54;101844.56;5054131;28;20029;-64
2023/06/15 07:38:02;;;;;;;11.40;3.55;;;;;;;26.93;37.89;101850.66;5055625;28;20035;-65
2023/06/15 07:40:27;;;;;;;8.05;3.30;;;;;;;26.94;38.95;101827.44;5055786;28;20037;-64
2023/06/15 07:42:53;;;;;;;6.72;3.33;;;;;;;27.50;38.28;101842.84;5056666;28;20249;-65
2023/06/15 07:45:18;;;;;;;13.00;3.97;;;;;;;27.79;37.11;101842.94;5057260;28;20569;-65
2023/06/15 07:47:44;;;;;;;14.90;4.15;;;;;;;28.35;35.88;101842.38;5057348;28;20033;-64
2023/06/15 07:50:10;;;;;;;13.38;4.68;;;;;;;28.69;35.12;101833.13;5040327;28;20040;-65
2023/06/15 07:52:35;;;;;;;11.73;4.60;;;;;;;28.96;34.33;101833.31;5058562;28;20082;-64
2023/06/15 07:55:01;;;;;;;13.43;4.15;;;;;;;29.40;33.76;101834.88;5056586;28;20056;-64
2023/06/15 07:57:26;;;;;;;10.93;3.83;;;;;;;29.57;33.40;101837.13;5055811;28;20028;-64
2023/06/15 07:59:52;;;;;;;13.00;4.40;;;;;;;29.49;32.96;101835.84;5055522;28;20025;-64
2023/06/15 08:02:18;;;;;;;10.13;4.70;;;;;;;29.24;33.33;101814.09;5055017;28;20049;-64
2023/06/15 08:04:43;;;;;;;14.20;4.72;;;;;;;29.49;33.27;101827.53;5055882;28;20056;-65
2023/06/15 08:07:09;;;;;;;12.57;4.40;;;;;;;29.65;33.39;101836.47;5057749;28;20052;-65
2023/06/15 08:09:35;;;;;;;9.57;4.22;;;;;;;29.88;32.93;101831.91;5056350;28;20079;-65
2023/06/15 08:12:01;;;;;;;7.05;4.13;;;;;;;29.94;32.80;101832.66;5056137;28;20045;-65
2023/06/15 08:14:26;;;;;;;7.25;4.00;;;;;;;29.94;32.90;101827.91;5038744;28;20060;-64
2023/06/15 08:16:52;;;;;;;7.50;3.65;;;;;;;30.29;33.02;101838.66;5038661;28;20025;-64
2023/06/15 08:19:18;;;;;;;6.85;4.00;;;;;;;30.43;32.37;101833.94;5059406;28;20044;-64
2023/06/15 08:21:43;;;;;;;9.32;4.07;;;;;;;30.67;32.53;101833.72;5055533;28;20047;-65
2023/06/15 08:24:09;;;;;;;8.82;3.63;;;;;;;31.06;32.16;101835.09;5059651;28;20635;-67
2023/06/15 08:26:34;;;;;;;6.97;3.47;;;;;;;31.40;32.12;101819.91;5063348;28;20044;-72
2023/06/15 08:29:00;;;;;;;8.60;3.80;;;;;;;31.66;31.71;101826.47;5064691;28;20025;-73
2023/06/15 08:31:26;;;;;;;6.60;3.72;;;;;;;31.70;31.69;101827.47;5064088;28;20029;-68
2023/06/15 08:33:52;;;;;;;6.10;3.83;;;;;;;31.55;31.94;101816.72;5063940;28;20029;-66
2023/06/15 08:36:18;;;;;;;6.38;3.80;;;;;;;31.58;32.00;101818.88;5062170;28;20039;-67
2023/06/15 08:38:43;;;;;;;7.00;3.58;;;;;;;31.77;32.53;101824.22;5044937;28;20198;-66
2023/06/15 08:41:10;;;;;;;4.88;3.40;;;;;;;31.94;31.85;101826.31;5061253;28;20522;-64
2023/06/15 08:43:37;;;;;;;9.10;3.42;;;;;;;31.88;31.33;101814.50;5057536;28;20025;-69
2023/06/15 08:46:04;;;;;;;5.28;3.70;;;;;;;31.81;31.49;101823.25;5063267;28;20064;-68
2023/06/15 08:48:32;;;;;;;7.72;3.65;;;;;;;31.77;32.34;101819.47;5062586;28;20031;-73
2023/06/15 08:50:57;;;;;;;4.60;3.80;;;;;;;31.62;31.84;101828.22;5063899;28;20088;-70
2023/06/15 08:53:23;;;;;;;6.93;3.38;;;;;;;31.64;32.34;101831.50;5064256;28;20100;-69
2023/06/15 08:55:49;;;;;;;5.95;3.47;;;;;;;31.89;32.19;101821.72;5065946;28;20032;-66
2023/06/15 08:58:15;;;;;;;6.00;3.75;;;;;;;31.96;32.16;101826.84;5065286;28;20044;-74
2023/06/15 09:00:41;;;;;;;6.30;3.60;;;;;;;31.77;32.12;101822.28;5067825;28;20055;-68
2023/06/15 09:03:08;;;;;;;4.65;3.35;;;;;;;31.32;32.85;101840.91;5067320;28;20029;-67
2023/06/15 09:05:34;;;;;;;7.18;3.60;;;;;;;31.06;33.28;101838.75;5066334;28;20100;-64
2023/06/15 09:08:00;;;;;;;6.32;3.42;;;;;;;30.94;33.37;101826.50;5068090;28;20032;-68
2023/06/15 09:10:26;;;;;;;4.95;3.42;;;;;;;30.85;33.90;101843.91;5067622;28;20628;-69
2023/06/15 09:12:56;;;;;;;5.32;3.70;;;;;;;30.79;34.54;101836.81;5068178;28;20028;-73
2023/06/15 09:15:24;;;;;;;4.50;3.80;;;;;;;30.76;35.11;101836.59;5066601;28;20028;-72
2023/06/15 09:17:51;;;;;;;5.20;4.30;;;;;;;30.69;35.52;101845.34;5054905;28;20035;-64
2023/06/15 09:20:18;;;;;;;6.70;3.80;;;;;;;30.68;36.11;101838.16;5059146;28;20044;-66
2023/06/15 09:22:45;;;;;;;7.80;4.20;;;;;;;30.77;36.22;101832.72;5064357;28;20511;-71
2023/06/15 09:25:17;;;;;;;7.20;4.25;;;;;;;31.00;36.47;101841.94;5069004;28;20021;-74
2023/06/15 09:27:52;;;;;;;7.93;4.03;;;;;;;31.12;35.76;101842.19;5067121;28;20088;-71
2023/06/15 09:30:18;;;;;;;9.48;4.07;;;;;;;31.23;36.04;101837.25;5064014;28;20021;-66
2023/06/15 09:32:43;;;;;;;6.10;4.28;;;;;;;31.25;35.05;101840.50;5042442;28;20040;-66
2023/06/15 09:35:09;;;;;;;5.97;4.00;;;;;;;31.30;34.76;101843.19;5056462;28;20085;-65
2023/06/15 09:37:34;;;;;;;6.30;3.88;;;;;;;31.38;33.89;101847.19;5056242;28;20391;-64
2023/06/15 09:40:04;;;;;;;8.70;3.83;;;;;;;31.33;33.80;101842.59;5057953;28;20518;-65
2023/06/15 09:42:30;;;;;;;10.43;3.75;;;;;;;31.53;33.83;101844.88;5057576;28;20506;-65
2023/06/15 09:44:59;;;;;;;5.47;3.50;;;;;;;31.70;33.14;101835.81;5057739;28;20133;-65
2023/06/15 09:47:31;;;;;;;6.60;4.05;;;;;;;31.95;32.57;101839.09;5058020;28;20584;-65
2023/06/15 09:49:58;;;;;;;7.10;3.70;;;;;;;31.93;33.25;101841.38;5057183;28;20029;-65
2023/06/15 09:52:23;;;;;;;4.95;3.80;;;;;;;31.94;32.52;101837.47;5057075;28;20036;-65
2023/06/15 09:54:52;;;;;;;5.60;3.47;;;;;;;32.00;31.82;101839.78;5056772;28;20418;-65
2023/06/15 09:57:19;;;;;;;7.70;3.42;;;;;;;32.09;31.67;101839.84;5056441;28;20071;-65
2023/06/15 09:59:48;;;;;;;5.72;3.45;;;;;;;32.22;31.03;101833.34;5058232;28;20037;-64
2023/06/15 10:02:17;;;;;;;4.75;3.13;;;;;;;32.28;31.43;101836.78;5059217;28;20117;-65
2023/06/15 10:04:45;;;;;;;3.63;3.33;;;;;;;32.24;31.24;101835.78;5056686;28;20395;-65
2023/06/15 10:07:13;;;;;;;5.30;3.30;;;;;;;32.04;31.04;101826.84;5058350;28;20364;-65
2023/06/15 10:09:46;;;;;;;9.20;3.75;;;;;;;31.73;31.93;101832.41;5056602;28;20051;-68
2023/06/15 10:12:24;;;;;;;5.95;3.30;;;;;;;31.53;32.02;101833.75;5055070;28;20401;-69
2023/06/15 10:15:03;;;;;;;6.43;3.55;;;;;;;31.58;32.29;101827.22;5056793;28;20082;-67
2023/06/15 10:17:35;;;;;;;6.22;4.10;;;;;;;31.55;32.21;101831.44;5058043;28;20082;-67
2023/06/15 10:20:10;;;;;;;5.60;3.90;;;;;;;31.78;32.99;101828.66;5041624;28;20021;-65
2023/06/15 10:22:46;;;;;;;9.25;3.83;;;;;;;31.90;33.38;101833.66;5055640;28;20055;-67
2023/06/15 10:25:13;;;;;;;11.05;4.40;;;;;;;32.04;33.68;101826.84;5056363;28;20073;-66
2023/06/15 10:27:39;;;;;;;8.05;3.80;;;;;;;32.17;33.48;101819.53;5056256;28;20063;-65
2023/06/15 10:30:16;;;;;;;6.93;3.70;;;;;;;32.30;32.46;101817.81;5055314;28;20049;-67
2023/06/15 10:32:48;;;;;;;4.43;3.60;;;;;;;32.37;32.45;101817.31;5053914;28;20060;-66
2023/06/15 10:35:27;;;;;;;8.25;3.60;;;;;;;32.36;32.37;101815.69;5052017;28;20116;-68
2023/06/15 10:38:11;;;;;;;8.15;4.10;;;;;;;32.27;31.91;101822.03;5055934;28;20021;-67
2023/06/15 10:40:46;;;;;;;4.38;3.60;;;;;;;32.16;31.86;101811.53;5055959;28;20036;-67
2023/06/15 10:43:19;;;;;;;6.90;3.60;;;;;;;32.07;31.67;101819.84;5055199;28;20116;-67
2023/06/15 10:45:46;;;;;;;5.90;3.58;;;;;;;31.98;32.15;101811.44;5056646;28;20551;-66
2023/06/15 10:48:27;;;;;;;6.32;3.67;;;;;;;32.11;31.38;101818.03;5055570;28;20096;-66
2023/06/15 10:51:05;;;;;;;7.43;3.70;;;;;;;32.23;31.67;101807.13;5057549;28;20029;-67
2023/06/15 10:53:37;;;;;;;7.10;3.03;;;;;;;32.25;31.59;101812.34;5054135;28;20028;-69
2023/06/15 10:56:11;;;;;;;4.85;3.92;;;;;;;32.02;31.96;101806.88;5056025;28;20021;-69
2023/06/15 10:58:53;;;;;;;8.68;3.60;;;;;;;31.99;32.69;101812.28;5057259;28;20518;-67
2023/06/15 11:01:23;;;;;;;8.07;3.75;;;;;;;31.96;32.35;101808.16;5056521;28;20048;-66
2023/06/15 11:03:50;;;;;;;5.47;3.90;;;;;;;31.85;32.39;101811.50;5056636;28;20387;-66
2023/06/15 11:06:21;;;;;;;6.10;3.78;;;;;;;31.91;32.49;101815.81;5057749;28;20020;-67
2023/06/15 11:08:52;;;;;;;4.22;3.42;;;;;;;31.86;32.12;101810.38;5057730;28;20043;-66
2023/06/15 11:11:33;;;;;;;4.70;3.50;;;;;;;32.06;31.34;101807.06;5059122;28;20024;-66
2023/06/15 11:14:06;;;;;;;5.57;3.47;;;;;;;32.11;31.48;101806.91;5057984;28;20407;-67
2023/06/15 11:16:34;;;;;;;6.60;3.57;;;;;;;32.10;31.39;101813.63;5056766;28;20025;-66
2023/06/15 11:19:11;;;;;;;4.20;3.80;;;;;;;32.00;32.12;101809.16;5023868;28;20028;-65
2023/06/15 11:21:47;;;;;;;4.40;3.67;;;;;;;31.75;32.54;101804.25;5054783;28;20086;-66
2023/06/15 11:24:13;;;;;;;5.78;3.53;;;;;;;31.75;33.08;101807.84;5054587;28;20055;-65